Newport, New York
Current Conditions -  °F | °C
As of 12:53 AM on Saturday 29 Nov 2014 (Local Time) from KRME Reporting Station
Light Snow Light Snow  
Wind Chill: 22°   Ceiling: 3900
Heat Index: 22°   Visibility: 6mi
Dew Point: 19°   Wind: 3mph
Humidity: 89%   Direction: 100°E
Pressure: 30.24"   Gusts: NA
Location:  43.19°N, 75.01°W
Report Text: KRME 290553Z AUTO 10003KT 6SM -SN BR BKN039 OVC048 M06/M07 A3024 RMK AO2 SLP246 P0000 60000 T10561072 11056 21056 51001 TSNO
Loading
Personal Weather Stations






























Interactive Weather Map New forecast layout! Learn more

10-Day Weather Forecast

Advertisements
Track Severe Weather on mobile